Terminal Aerodrome Forecast
Issued by NWS

Home | Current Version | Previous Version | Text Only | Print | Product List | Glossary On
Versions: 1 2 3 4 5 6 7 8 9 10 11 12 13 14
000
FTUS45 KTFX 192300
TAFGTF
TAF
KGTF 192328Z 2000/2024 21014G24KT P6SM BKN070
     FM200300 22014KT P6SM VCSH SCT040 OVC070
      TEMPO 2004/2008 -SHRASN OVC040
     FM200900 22014KT P6SM SCT040
     FM201900 22016KT P6SM BKN100=

USA.gov is the U.S. government's official web portal to all federal, state and local government web resources and services.